Terminal Aerodrome Forecast
Issued by NWS

Home | Current Version | Previous Version | Text Only | Print | Product List | Glossary On
Versions: 1 2 3 4 5 6 7 8 9 10 11 12 13 14 15 16 17 18 19
000
FTUS46 KSEW 011100
TAFOLM
TAF
KOLM 011140Z 0112/0212 VRB03KT 4SM BR SCT005 SCT050 BKN200
      TEMPO 0112/0116 1/2SM FG VV005
     FM011800 22005KT P6SM FEW012 SCT050 BKN200
     FM012000 27008KT P6SM BKN200
     FM020100 VRB03KT P6SM BKN200
     FM020900 00000KT 2SM BR VV003=

USA.gov is the U.S. government's official web portal to all federal, state and local government web resources and services.